Hamlet, Ohio
Current Conditions -  °F | °C
As of 7:53 AM on Friday 24 Oct 2014 (Local Time) from KLUK Reporting Station
Haze Haze  
Wind Chill: 41°   Ceiling: 200
Heat Index: 41°   Visibility: 2mi
Dew Point: 41°   Wind: 0mph
Humidity: 100%   Direction: NA
Pressure: 30.14"   Gusts: NA
Location:  39.0167°N, 84.2069°W
Report Text: KLUK 241153Z 00000KT 2SM R21L/4000VP6000FT BR BKN002 05/05 A3014 RMK AO2 SLP209 T00500050 10056 20033 51001
Loading
Personal Weather Stations






























Interactive Weather Map
Tropical Storm Tracking
New forecast layout! Learn more

10-Day Weather Forecast

Advertisements
Track Severe Weather on mobile